Airfield :
LOGIN :

Register | Disclaimer

   EN    FR    IT 

 










Legend :    VFR   Marginal VFR   IFR   Intensive IFR   Very Intensive IFR
Visi :
Ceiling :
>= 8 km
>= 3000ft
5 to 8 km
1000 to 3000 ft
1500m to 5 km
500 to 1000 ft
800 to 1500m
200 to 500 ft
< 800m
< 200 ft
Symbols :   Thunderstorms  Fog  Heavy snow  Heavy precipitations  Wind > 20 kt
SIGMETs :     Misc.  Thunderstorms  Icing  Turbulence  Mountain Waves  Volcanic Ashes






- Airport Elevation : 36 ft
- IATA code : LTQ


LFAT - Le Touquet

CURRENT METAR :
  • 161930Z AUTO 36003KT 340V050 6000 -RADZ SCT007 BKN013 OVC062 12/12 Q1005

EXPIRED METARs :
  • 161900Z AUTO 34006KT 9000 -RA BKN006/// BKN013/// OVC019/// ///TCU 13/12 Q1005
  • 161830Z AUTO 31004KT 6000 RA BKN005/// BKN010/// OVC016/// ///TCU 13/13 Q1005
  • 161800Z AUTO 30004KT 270V330 5000 RA BR BKN005/// OVC009/// ///CB 13/13 Q1005 TEMPO 2000 RA OVC004
  • 161730Z AUTO 29003KT 4800 RA BR OVC004/// ///TCU 14/13 Q1005 TEMPO 2000 RA OVC004
  • 161700Z AUTO VRB02KT 3500 -RA BR OVC004/// ///TCU 14/13 Q1004 TEMPO 2000 RA OVC004

TAF AMD TAF LFAT
Valid from the 16 at 16:00 until the 17 at 00:00 UTC


161638Z 1616/1624 28008KT 6000 BKN008 OVC012
TEMPO 1616/1620 2000 RA OVC004
BECMG 1620/1622 BKN020
ATIS : +33 3 21 06 62 84



MET'MAP, your aeronautical weather chart ! - Copyright ORBIFLY December 2007 - Disclaimer

ORBIFLY MET'MAP TEAM :

Programming & Development : Alexandra Zaïnal
Concept & Development : Baudouin d'Aumeries
Co-Development & Prog : Marc-Olivier Méhu
Technical & hardware support : Manuel Goepfert

Contact : metmap@orbifly.com




SOURCES & CREDITS :

   NOAA